createdAt,value
2022-11-24T07:26:53.039Z,100004.60
2022-11-24T07:28:25.355Z,100005.20
2022-11-24T07:29:57.192Z,100009.00
2022-11-24T07:31:29.176Z,100012.80
2022-11-24T07:33:04.138Z,100015.00
2022-11-24T07:34:36.288Z,100016.80
2022-11-24T07:36:09.862Z,100021.60
2022-11-24T07:37:41.648Z,100019.00
2022-11-24T07:39:13.399Z,100024.00
2022-11-24T07:40:45.587Z,100021.00
2022-11-24T07:42:17.474Z,100023.00
2022-11-24T07:43:51.753Z,100030.00
2022-11-24T07:45:23.573Z,100029.40
2022-11-24T07:46:55.654Z,100029.40
2022-11-24T07:48:27.801Z,100031.00
2022-11-24T07:49:59.563Z,100033.00
2022-11-24T07:51:31.331Z,100039.00
2022-11-24T07:53:04.115Z,100043.80
2022-11-24T07:54:36.348Z,100046.20
2022-11-24T07:56:10.484Z,100054.20
2022-11-24T07:57:42.373Z,100061.60
2022-11-24T07:59:14.363Z,100061.60
2022-11-24T08:00:46.153Z,100063.60
2022-11-24T08:02:18.097Z,100067.00
2022-11-24T08:03:51.623Z,100074.40
2022-11-24T08:05:23.610Z,100072.80
2022-11-24T08:06:55.411Z,100077.80
2022-11-24T08:08:27.792Z,100077.40
2022-11-24T08:09:59.902Z,100073.20
2022-11-24T08:11:32.953Z,100090.00
2022-11-24T08:13:04.971Z,100078.60
2022-11-24T08:14:36.995Z,100083.00
2022-11-24T08:16:15.260Z,100087.00
2022-11-24T08:17:48.228Z,100091.40
2022-11-24T08:19:21.597Z,100097.40
2022-11-24T08:20:53.394Z,100095.20
2022-11-24T08:22:25.815Z,100098.20
2022-11-24T08:23:58.343Z,100093.40
2022-11-24T08:25:32.496Z,100100.80
2022-11-24T08:27:04.595Z,100106.40
2022-11-24T08:28:38.211Z,100101.60
2022-11-24T08:30:10.994Z,100101.60
2022-11-24T08:31:43.014Z,100112.80
2022-11-24T08:33:15.210Z,100110.00
2022-11-24T08:34:47.137Z,100112.00
2022-11-24T08:36:19.677Z,100119.60
2022-11-24T08:37:51.517Z,100117.20
2022-11-24T08:39:23.633Z,100121.00
2022-11-24T08:41:04.592Z,100120.60
2022-11-24T08:42:36.456Z,100125.40
2022-11-24T08:44:10.191Z,100124.60
2022-11-24T08:45:42.228Z,100120.80
2022-11-24T08:47:14.193Z,100130.40
2022-11-24T08:48:52.000Z,100137.00
2022-11-24T08:50:25.382Z,100140.40
2022-11-24T08:51:57.758Z,100137.40
2022-11-24T08:53:29.638Z,100136.20
2022-11-24T08:55:01.727Z,100138.60
2022-11-24T08:56:34.007Z,100143.60
2022-11-24T08:58:05.855Z,100144.80
2022-11-24T08:59:39.317Z,100141.40
2022-11-24T09:01:15.300Z,100151.80
2022-11-24T09:02:55.002Z,100155.60
2022-11-24T09:04:26.907Z,100152.20
2022-11-24T09:05:59.003Z,100164.80
2022-11-24T09:07:30.848Z,100164.20
2022-11-24T09:09:03.624Z,100169.40
2022-11-24T09:10:36.041Z,100168.80
2022-11-24T09:12:14.351Z,100171.20
2022-11-24T09:13:46.637Z,100172.60
2022-11-24T09:15:20.334Z,100172.00
2022-11-24T09:16:52.223Z,100175.00
2022-11-24T09:18:28.852Z,100173.00
2022-11-24T09:20:03.558Z,100184.40
2022-11-24T09:21:39.374Z,100181.20
2022-11-24T09:23:11.584Z,100182.20
2022-11-24T09:24:44.234Z,100185.60
2022-11-24T09:26:43.026Z,100187.20
2022-11-24T09:28:18.295Z,100193.60
2022-11-24T09:29:50.661Z,100191.40
2022-11-24T09:31:27.284Z,100199.60
2022-11-24T09:32:59.396Z,100199.80
2022-11-24T09:34:31.440Z,100198.00
2022-11-24T09:36:05.881Z,100199.40
2022-11-24T09:37:37.805Z,100208.60
2022-11-24T09:39:11.707Z,100209.00
2022-11-24T09:40:44.514Z,100208.60
2022-11-24T09:42:23.384Z,100211.20
2022-11-24T09:44:51.724Z,100214.60
2022-11-24T09:46:36.343Z,100220.60
2022-11-24T09:48:39.388Z,100229.60
2022-11-24T09:50:22.718Z,100229.00
2022-11-24T09:51:57.107Z,100231.00
2022-11-24T09:53:38.034Z,100232.20
2022-11-24T09:55:48.050Z,100233.20
2022-11-24T09:57:26.434Z,100240.00
2022-11-24T09:59:20.136Z,100238.60
2022-11-24T10:00:55.362Z,100240.80
2022-11-24T10:02:27.296Z,100246.80
2022-11-24T10:04:06.494Z,100245.20
2022-11-24T10:05:38.937Z,100243.60
2022-11-24T10:07:30.381Z,100241.80
2022-11-24T10:09:23.146Z,100247.40
2022-11-24T10:11:00.963Z,100247.40
2022-11-24T10:13:26.756Z,100242.60
2022-11-24T10:15:14.830Z,100250.20
2022-11-24T10:17:23.493Z,100260.20
2022-11-24T10:19:37.661Z,100262.20
2022-11-24T10:21:43.601Z,100261.40
2022-11-24T10:24:02.552Z,100270.00
2022-11-24T10:25:50.566Z,100270.20
2022-11-24T10:27:35.185Z,100270.80
2022-11-24T10:29:36.761Z,100269.40
2022-11-24T10:31:35.953Z,100274.20
2022-11-24T10:33:28.725Z,100277.80
2022-11-24T10:35:29.279Z,100271.80
2022-11-24T10:37:12.403Z,100275.40
2022-11-24T10:39:03.158Z,100280.60
2022-11-24T10:40:57.750Z,100278.60
2022-11-24T10:42:33.558Z,100283.00
2022-11-24T10:44:12.436Z,100287.60
2022-11-24T10:45:44.183Z,100287.40
2022-11-24T10:47:22.698Z,100288.00
2022-11-24T10:49:03.846Z,100286.60
2022-11-24T10:50:42.662Z,100295.60
2022-11-24T10:52:19.042Z,100294.00
2022-11-24T10:53:59.815Z,100297.80
2022-11-24T10:56:05.477Z,100291.80
2022-11-24T10:57:41.184Z,100289.40
2022-11-24T10:59:25.080Z,100295.40
2022-11-24T11:01:02.546Z,100296.60
2022-11-24T11:02:43.043Z,100292.60
2022-11-24T11:04:27.193Z,100294.20
2022-11-24T11:06:21.072Z,100297.20
2022-11-24T11:08:26.523Z,100301.40
2022-11-24T11:10:23.623Z,100302.80
2022-11-24T11:11:56.851Z,100297.80
2022-11-24T11:13:32.462Z,100303.60
2022-11-24T11:15:28.703Z,100300.60
2022-11-24T11:17:00.641Z,100311.60
2022-11-24T11:18:34.236Z,100311.60
2022-11-24T11:20:19.463Z,100308.00
2022-11-24T11:22:02.994Z,100308.80
2022-11-24T11:23:37.002Z,100309.80
2022-11-24T11:25:11.420Z,100309.80
2022-11-24T11:26:43.874Z,100318.00
2022-11-24T11:28:18.900Z,100322.40
2022-11-24T11:34:23.273Z,100328.20
2022-11-24T11:36:01.624Z,100331.60
2022-11-24T11:37:34.166Z,100332.60
2022-11-24T11:39:06.426Z,100335.80
2022-11-24T11:40:42.733Z,100335.00
2022-11-24T11:42:53.627Z,100334.20
2022-11-24T11:44:59.629Z,100339.20
2022-11-24T11:46:33.040Z,100335.40
2022-11-24T11:48:27.138Z,100335.60
2022-11-24T11:49:59.107Z,100337.60
2022-11-24T11:52:19.823Z,100337.20
2022-11-24T11:54:25.702Z,100338.00
2022-11-24T11:56:14.758Z,100345.40
2022-11-24T11:58:08.347Z,100343.80
2022-11-24T12:00:04.978Z,100350.40
2022-11-24T12:02:00.005Z,100346.00
2022-11-24T12:03:41.107Z,100342.80
2022-11-24T12:05:30.082Z,100349.40
2022-11-24T12:07:28.296Z,100349.60
2022-11-24T12:09:21.470Z,100351.00
2022-11-24T12:11:12.365Z,100347.40
2022-11-24T12:13:02.791Z,100355.20
2022-11-24T12:15:11.197Z,100355.00
2022-11-24T12:17:12.271Z,100347.00
2022-11-24T12:19:10.477Z,100355.60
2022-11-24T12:21:01.672Z,100351.40
2022-11-24T12:23:02.960Z,100349.60
2022-11-24T12:25:02.778Z,100351.80
2022-11-24T12:26:46.588Z,100354.40
2022-11-24T12:28:26.327Z,100354.00
2022-11-24T12:30:13.691Z,100358.20
2022-11-24T12:32:31.951Z,100357.00
2022-11-24T13:47:57.870Z,100363.20
2022-11-24T13:49:41.027Z,100366.20
2022-11-24T13:51:24.006Z,100368.00
2022-11-24T13:53:15.740Z,100369.60
2022-11-24T13:54:47.972Z,100375.00
2022-11-24T13:56:22.298Z,100372.20
2022-11-24T13:58:27.436Z,100374.00
2022-11-24T14:00:04.693Z,100375.60
2022-11-24T14:01:40.849Z,100379.80
2022-11-24T14:03:28.964Z,100379.80
2022-11-24T14:05:00.741Z,100382.40
2022-11-24T14:07:09.095Z,100387.00
2022-11-24T14:08:41.496Z,100383.40
2022-11-24T14:10:21.274Z,100385.80
2022-11-24T14:12:06.312Z,100384.20
2022-11-24T14:13:38.088Z,100379.40
2022-11-24T14:15:29.456Z,100381.60
2022-11-24T14:17:29.018Z,100385.60
2022-11-24T14:19:10.701Z,100381.00
2022-11-24T14:20:42.857Z,100384.80
2022-11-24T14:22:32.548Z,100378.80
2022-11-24T14:24:38.230Z,100380.20
2022-11-24T14:26:36.652Z,100377.00
2022-11-24T14:28:25.994Z,100388.00
2022-11-24T14:29:57.867Z,100381.20
2022-11-24T14:31:29.832Z,100389.60
2022-11-24T14:33:04.005Z,100386.80
2022-11-24T14:34:36.226Z,100389.80
2022-11-24T14:36:15.811Z,100388.80
2022-11-24T14:37:48.720Z,100391.40
2022-11-24T14:39:26.681Z,100394.00
2022-11-24T14:41:25.480Z,100395.00
2022-11-24T14:42:57.839Z,100391.00
2022-11-24T14:44:44.434Z,100391.40
2022-11-24T14:46:20.999Z,100394.00
2022-11-24T14:47:53.420Z,100397.20
2022-11-24T14:49:25.351Z,100394.40
2022-11-24T14:51:34.799Z,100393.20
2022-11-24T14:53:15.157Z,100391.20
2022-11-24T14:55:17.371Z,100392.20
2022-11-24T14:57:04.430Z,100394.80
2022-11-24T14:58:42.033Z,100397.40
2022-11-24T15:00:17.581Z,100398.60
2022-11-24T15:01:49.528Z,100391.80
2022-11-24T15:03:21.554Z,100394.20
2022-11-24T15:05:03.336Z,100390.00
2022-11-24T15:06:35.930Z,100392.40
2022-11-24T15:08:13.463Z,100394.00
2022-11-24T15:09:48.119Z,100394.80
2022-11-24T15:11:20.498Z,100397.60
2022-11-24T15:12:59.262Z,100393.80
2022-11-24T15:14:54.611Z,100395.40
2022-11-24T15:16:30.052Z,100392.20
2022-11-24T15:18:04.900Z,100392.60
2022-11-24T15:19:36.771Z,100388.80
2022-11-24T15:21:14.157Z,100391.20
2022-11-24T15:22:52.548Z,100396.40
2022-11-24T15:24:25.041Z,100396.20
2022-11-24T15:25:57.729Z,100398.60
2022-11-24T15:27:30.432Z,100399.20
2022-11-24T15:29:02.739Z,100398.80
2022-11-24T15:30:37.865Z,100396.80
2022-11-24T15:32:16.781Z,100398.00
2022-11-24T15:33:48.644Z,100400.20
2022-11-24T15:35:22.666Z,100402.40
2022-11-24T15:36:55.390Z,100405.60
2022-11-24T15:38:28.366Z,100403.80
2022-11-24T15:40:00.169Z,100402.40
2022-11-24T15:41:33.688Z,100412.00
2022-11-24T15:43:40.355Z,100405.00
2022-11-24T15:45:12.502Z,100412.20
2022-11-24T15:46:44.395Z,100410.40
2022-11-24T15:48:18.120Z,100414.00
2022-11-24T15:49:50.427Z,100412.40
2022-11-24T15:51:26.227Z,100417.80
2022-11-24T15:52:58.214Z,100423.40
2022-11-24T15:54:32.571Z,100418.20
2022-11-24T15:56:14.078Z,100422.80
2022-11-24T15:57:45.915Z,100419.00
2022-11-24T15:59:20.757Z,100416.20
2022-11-24T16:00:53.707Z,100418.40
2022-11-24T16:02:26.201Z,100421.20
2022-11-24T16:03:57.953Z,100421.80
2022-11-24T16:05:30.643Z,100424.40
2022-11-24T16:07:03.780Z,100421.40
2022-11-24T16:08:35.497Z,100424.60
2022-11-24T16:10:19.255Z,100425.80
2022-11-24T16:11:50.947Z,100423.60
2022-11-24T16:13:22.647Z,100426.60
2022-11-24T16:14:54.281Z,100425.60
2022-11-24T16:16:26.214Z,100432.00
2022-11-24T16:17:58.058Z,100431.80
2022-11-24T16:19:29.814Z,100432.20
2022-11-24T16:21:01.519Z,100433.00
2022-11-24T16:22:33.301Z,100432.20
2022-11-24T16:24:05.380Z,100434.20
2022-11-24T16:25:37.127Z,100439.60
2022-11-24T16:27:09.288Z,100439.00
2022-11-24T16:28:41.997Z,100439.80
2022-11-24T16:30:14.274Z,100441.00
2022-11-24T16:31:47.236Z,100446.60
2022-11-24T16:33:19.035Z,100443.60
2022-11-24T16:34:50.789Z,100444.40
2022-11-24T16:36:22.607Z,100441.60
2022-11-24T16:37:54.306Z,100442.40
2022-11-24T16:39:26.049Z,100445.20
2022-11-24T16:40:58.434Z,100444.20
2022-11-24T16:42:30.768Z,100443.40
2022-11-24T16:44:04.130Z,100444.60
2022-11-24T16:45:39.609Z,100449.20
2022-11-24T16:47:14.089Z,100445.00
2022-11-24T16:48:48.884Z,100448.40
2022-11-24T16:50:20.867Z,100448.00
2022-11-24T16:51:52.788Z,100445.60
2022-11-24T16:53:24.852Z,100444.60
2022-11-24T16:54:56.643Z,100443.60
2022-11-24T16:56:30.527Z,100443.80
2022-11-24T16:58:05.107Z,100440.40
2022-11-24T16:59:38.405Z,100437.80
2022-11-24T17:01:13.987Z,100435.60
2022-11-24T17:02:46.497Z,100437.80
2022-11-24T17:04:18.458Z,100439.00
2022-11-24T17:05:58.086Z,100437.00
2022-11-24T17:07:30.299Z,100439.20
2022-11-24T17:09:02.118Z,100436.60
2022-11-24T17:10:38.344Z,100440.60
2022-11-24T17:12:10.763Z,100435.20
2022-11-24T17:13:45.652Z,100436.20
2022-11-24T17:15:32.558Z,100433.80
2022-11-24T17:17:05.698Z,100432.20
2022-11-24T17:18:38.902Z,100431.40
2022-11-24T17:20:11.732Z,100431.80
2022-11-24T17:21:43.457Z,100432.40
2022-11-24T17:23:15.884Z,100434.40
2022-11-24T17:24:47.603Z,100439.60
2022-11-24T17:26:19.665Z,100435.00
2022-11-24T17:27:51.678Z,100436.00
2022-11-24T17:29:23.463Z,100431.40
2022-11-24T17:30:55.921Z,100438.60
2022-11-24T17:32:27.679Z,100441.20
2022-11-24T17:34:00.807Z,100440.40
2022-11-24T17:35:35.970Z,100437.20
2022-11-24T17:37:08.021Z,100437.60
2022-11-24T17:38:39.865Z,100436.00
2022-11-24T17:40:28.371Z,100439.00
2022-11-24T17:42:00.822Z,100441.00
2022-11-24T17:43:33.610Z,100436.40
2022-11-24T17:45:06.005Z,100438.00
2022-11-24T17:46:39.305Z,100442.00
2022-11-24T17:48:11.226Z,100441.40
2022-11-24T17:49:43.055Z,100440.80
2022-11-24T17:51:18.672Z,100440.20
2022-11-24T17:52:50.659Z,100441.00
2022-11-24T17:54:45.257Z,100439.60
2022-11-24T17:56:18.374Z,100441.80
2022-11-24T17:57:50.655Z,100440.80
2022-11-24T17:59:22.994Z,100444.80
2022-11-24T18:00:55.075Z,100448.00
2022-11-24T18:02:27.760Z,100451.20
2022-11-24T18:03:59.731Z,100448.20
2022-11-24T18:05:36.113Z,100448.80
2022-11-24T18:07:08.663Z,100450.60
2022-11-24T18:08:44.940Z,100451.80
2022-11-24T18:10:16.786Z,100447.40
2022-11-24T18:11:48.522Z,100452.60
2022-11-24T18:13:48.353Z,100452.40
2022-11-24T18:15:12.093Z,100446.80
2022-11-24T18:16:43.891Z,100453.00
2022-11-24T18:18:15.598Z,100452.80
2022-11-24T18:19:47.364Z,100445.60
2022-11-24T18:21:19.122Z,100447.00
2022-11-24T18:23:05.181Z,100447.60
2022-11-24T18:24:39.037Z,100452.40
2022-11-24T18:26:14.875Z,100454.20
2022-11-24T18:27:46.669Z,100461.00
2022-11-24T18:29:18.414Z,100460.40
2022-11-24T18:30:51.211Z,100460.00
2022-11-24T18:32:22.947Z,100462.60
2022-11-24T18:33:55.312Z,100467.80
2022-11-24T18:35:27.117Z,100468.60
2022-11-24T18:36:58.830Z,100466.20
2022-11-24T18:38:31.997Z,100469.20
2022-11-24T18:40:04.276Z,100472.00
2022-11-24T18:41:36.620Z,100470.00
2022-11-24T18:43:08.419Z,100472.80
2022-11-24T18:44:42.281Z,100478.60
2022-11-24T18:46:17.341Z,100476.40
2022-11-24T18:47:49.953Z,100476.40
2022-11-24T18:49:21.707Z,100480.40
2022-11-24T18:50:56.152Z,100480.80
2022-11-24T18:52:27.873Z,100480.60
2022-11-24T18:54:00.035Z,100486.20
2022-11-24T18:55:32.366Z,100481.80
2022-11-24T18:58:19.790Z,100482.80
2022-11-24T18:59:51.777Z,100482.80
2022-11-24T19:01:29.071Z,100489.00
2022-11-24T19:03:01.008Z,100488.40
2022-11-24T19:04:33.479Z,100481.80
2022-11-24T19:06:08.167Z,100479.80
2022-11-24T19:07:40.064Z,100486.60
2022-11-24T19:09:16.014Z,100484.40
2022-11-24T19:10:49.471Z,100488.20
2022-11-24T19:12:21.408Z,100489.60
2022-11-24T19:13:53.448Z,100488.60
2022-11-24T19:15:25.210Z,100486.60
2022-11-24T19:16:57.032Z,100484.60
2022-11-24T19:18:31.902Z,100485.60
2022-11-24T19:20:04.029Z,100483.40
2022-11-24T19:21:39.556Z,100483.60
2022-11-24T19:23:11.688Z,100484.20
2022-11-24T19:24:46.583Z,100480.80
2022-11-24T19:26:19.654Z,100478.80
2022-11-24T19:27:51.382Z,100469.60
2022-11-24T19:29:23.180Z,100468.60
2022-11-24T19:31:04.365Z,100464.60
2022-11-24T19:32:36.431Z,100461.00
2022-11-24T19:34:09.998Z,100462.60
2022-11-24T19:35:41.818Z,100468.20
2022-11-24T19:37:13.993Z,100465.20
2022-11-24T19:38:57.864Z,100468.00
2022-11-24T19:40:29.679Z,100467.80
2022-11-24T19:42:01.653Z,100470.60
2022-11-24T19:43:34.533Z,100465.80
2022-11-24T19:45:07.535Z,100461.80
2022-11-24T19:46:40.883Z,100460.80
2022-11-24T19:48:12.804Z,100463.20
2022-11-24T19:49:44.658Z,100462.40
2022-11-24T19:51:20.486Z,100464.00
2022-11-24T19:52:53.545Z,100462.60
2022-11-24T19:54:25.355Z,100458.40
2022-11-24T19:56:05.891Z,100457.60
2022-11-24T19:57:38.158Z,100463.00
2022-11-24T19:59:15.861Z,100459.20
2022-11-24T20:00:48.584Z,100461.60
2022-11-24T20:02:20.434Z,100458.80
2022-11-24T20:03:59.397Z,100456.20
2022-11-24T20:05:31.422Z,100457.60
2022-11-24T20:07:03.180Z,100461.00
2022-11-24T20:08:37.750Z,100452.00
2022-11-24T20:10:10.053Z,100454.60
2022-11-24T20:11:42.643Z,100453.20
2022-11-24T20:13:14.465Z,100458.00
2022-11-24T20:14:46.270Z,100459.00
2022-11-24T20:16:26.262Z,100458.80
2022-11-24T20:17:59.044Z,100464.60
2022-11-24T20:19:33.164Z,100467.00
2022-11-24T20:21:09.030Z,100464.60
2022-11-24T20:22:40.858Z,100465.80
2022-11-24T20:24:22.213Z,100466.00
2022-11-24T20:25:54.034Z,100462.40
2022-11-24T20:27:25.999Z,100462.20
2022-11-24T20:28:59.842Z,100457.60
2022-11-24T20:30:32.839Z,100458.20
2022-11-24T20:32:04.773Z,100455.00
2022-11-24T20:33:37.149Z,100454.80
2022-11-24T20:35:15.023Z,100453.20
2022-11-24T20:36:52.817Z,100453.00
2022-11-24T20:38:24.714Z,100460.60
2022-11-24T20:39:59.071Z,100457.40
2022-11-24T20:42:02.934Z,100453.80
2022-11-24T20:43:35.613Z,100452.60
2022-11-24T20:45:08.188Z,100448.00
2022-11-24T20:46:42.194Z,100452.40
2022-11-24T20:48:13.953Z,100454.80
2022-11-24T20:49:45.744Z,100450.00
2022-11-24T20:51:22.330Z,100450.00
2022-11-24T20:52:54.058Z,100456.40
2022-11-24T20:54:26.384Z,100457.00
2022-11-24T20:56:07.731Z,100458.20
2022-11-24T20:57:39.466Z,100455.40
2022-11-24T20:59:15.844Z,100457.80
2022-11-24T21:00:47.662Z,100453.00
2022-11-24T21:02:21.216Z,100453.20
2022-11-24T21:03:58.342Z,100455.40
2022-11-24T21:05:30.036Z,100453.20
2022-11-24T21:07:01.891Z,100455.40
2022-11-24T21:08:36.698Z,100453.40
2022-11-24T21:10:08.718Z,100452.80
2022-11-24T21:11:41.933Z,100454.00
2022-11-24T21:13:13.806Z,100453.80
2022-11-24T21:14:45.602Z,100454.40
2022-11-24T21:16:28.253Z,100454.60
2022-11-24T21:18:00.009Z,100451.20
2022-11-24T21:19:31.810Z,100450.00
2022-11-24T21:21:03.671Z,100445.00
2022-11-24T21:22:35.523Z,100452.60
2022-11-24T21:24:15.964Z,100451.80
2022-11-24T21:25:47.835Z,100450.20
2022-11-24T21:27:19.591Z,100451.80
2022-11-24T21:28:52.035Z,100456.40
2022-11-24T21:30:25.594Z,100458.40
2022-11-24T21:31:57.450Z,100456.20
2022-11-24T21:33:29.263Z,100455.00
2022-11-24T21:35:01.110Z,100456.20
2022-11-24T21:36:34.961Z,100454.00
2022-11-24T21:38:06.675Z,100458.40
2022-11-24T21:39:38.443Z,100457.20
2022-11-24T21:41:13.932Z,100457.00
2022-11-24T21:42:45.804Z,100457.20
2022-11-24T21:44:17.655Z,100455.80
2022-11-24T21:45:49.445Z,100454.00
2022-11-24T21:47:21.217Z,100450.00
2022-11-24T21:48:54.077Z,100449.80
2022-11-24T21:50:26.016Z,100451.60
2022-11-24T21:51:57.827Z,100450.80
2022-11-24T21:53:37.803Z,100454.60
2022-11-24T21:55:09.714Z,100445.40
2022-11-24T21:56:41.440Z,100445.80
2022-11-24T21:58:13.886Z,100443.40
2022-11-24T21:59:45.685Z,100441.40
2022-11-24T22:01:20.840Z,100436.00
2022-11-24T22:02:54.797Z,100436.60
2022-11-24T22:04:26.737Z,100441.40
2022-11-24T22:06:00.702Z,100441.80
2022-11-24T22:07:32.822Z,100436.80
2022-11-24T22:09:05.021Z,100433.00
2022-11-24T22:10:37.009Z,100438.20
2022-11-24T22:12:09.988Z,100434.80
2022-11-24T22:13:43.961Z,100439.40
2022-11-24T22:15:18.123Z,100434.00
2022-11-24T22:16:50.261Z,100432.60
2022-11-24T22:18:22.279Z,100435.80
2022-11-24T22:19:55.098Z,100432.40
2022-11-24T22:21:33.487Z,100430.80
2022-11-24T22:23:05.439Z,100430.80
2022-11-24T22:24:37.676Z,100425.00
2022-11-24T22:26:19.696Z,100425.20
2022-11-24T22:27:51.550Z,100421.20
2022-11-24T22:29:23.587Z,100416.60
2022-11-24T22:30:55.543Z,100420.00
2022-11-24T22:32:27.397Z,100420.60
2022-11-24T22:34:01.254Z,100421.80
2022-11-24T22:35:33.220Z,100426.20
2022-11-24T22:37:05.127Z,100421.00
2022-11-24T22:38:37.458Z,100423.20
2022-11-24T22:40:09.649Z,100428.20
2022-11-24T22:41:41.627Z,100423.60
2022-11-24T22:43:15.097Z,100419.40
2022-11-24T22:44:50.407Z,100417.20
2022-11-24T22:46:27.210Z,100414.60
2022-11-24T22:47:59.572Z,100415.40
2022-11-24T22:49:31.514Z,100410.60
2022-11-24T22:51:07.527Z,100412.60
2022-11-24T22:52:40.507Z,100417.80
2022-11-24T22:54:14.502Z,100417.00
2022-11-24T22:55:46.231Z,100419.00
2022-11-24T22:57:17.975Z,100415.60
2022-11-24T22:58:52.235Z,100420.00
2022-11-24T23:00:24.169Z,100416.00
2022-11-24T23:01:55.889Z,100418.00
2022-11-24T23:03:27.802Z,100418.40
2022-11-24T23:04:59.854Z,100413.80
2022-11-24T23:06:33.813Z,100419.40
2022-11-24T23:08:08.948Z,100419.80
2022-11-24T23:09:41.127Z,100426.00
2022-11-24T23:11:17.787Z,100422.60
2022-11-24T23:12:50.045Z,100421.40
2022-11-24T23:14:21.902Z,100415.20
2022-11-24T23:15:53.777Z,100420.40
2022-11-24T23:17:25.559Z,100418.20
2022-11-24T23:18:58.077Z,100422.40
2022-11-24T23:20:29.884Z,100420.40
2022-11-24T23:22:01.677Z,100420.20
2022-11-24T23:23:34.737Z,100418.00
2022-11-24T23:25:07.048Z,100414.80
2022-11-24T23:26:41.457Z,100415.80
2022-11-24T23:28:13.692Z,100413.80
2022-11-24T23:29:45.467Z,100412.40
2022-11-24T23:31:21.526Z,100407.60
2022-11-24T23:32:54.367Z,100407.40
2022-11-24T23:34:26.359Z,100409.40
2022-11-24T23:36:09.379Z,100404.00
2022-11-24T23:38:06.111Z,100403.60
2022-11-24T23:39:33.975Z,100407.60
2022-11-24T23:41:11.687Z,100403.40
2022-11-24T23:42:47.895Z,100400.60
2022-11-24T23:44:20.817Z,100396.60
2022-11-24T23:45:53.522Z,100391.20
2022-11-24T23:47:26.727Z,100392.60
2022-11-24T23:48:59.611Z,100392.60
2022-11-24T23:50:31.452Z,100386.40
2022-11-24T23:52:03.375Z,100383.40
2022-11-24T23:53:37.036Z,100384.60
2022-11-24T23:55:09.098Z,100379.20
2022-11-24T23:56:40.881Z,100379.80
2022-11-24T23:58:12.650Z,100380.40
2022-11-24T23:59:45.037Z,100377.00
